West Bend, Wisconsin
Current Conditions -  °F | °C
As of 2:10 PM on Monday 26 Jan 2015 (Local Time) from KETB Reporting Station
Light Snow Light Snow  
Wind Chill: 18°   Ceiling: 1700
Heat Index: 25°   Visibility: 2.5mi
Dew Point: 19°   Wind: 6mph
Humidity: 80%   Direction: 120°ESE
Pressure: 29.83"   Gusts: NA
Location:  43.41°N, 88.18°W
Report Text: KETB 262010Z AUTO 12005KT 2 1/2SM -SN BKN017 BKN027 OVC060 M04/M07 A2983 RMK AO2
Loading
Personal Weather Stations






























Interactive Weather Map New forecast layout! Learn more

10-Day Weather Forecast

Advertisements
Track Severe Weather on mobile